sensor_id;sensor_type;location;lat;lon;timestamp;P1;durP1;ratioP1;P2;durP2;ratioP2
24613;SDS011;12760;46.296;25.290;2023-01-23T00:00:28;5.97;;;2.57;;
24613;SDS011;12760;46.296;25.290;2023-01-23T00:02:54;2.27;;;2.17;;
24613;SDS011;12760;46.296;25.290;2023-01-23T00:05:20;1.77;;;1.77;;
24613;SDS011;12760;46.296;25.290;2023-01-23T00:07:46;1.70;;;1.70;;
24613;SDS011;12760;46.296;25.290;2023-01-23T00:10:12;1.30;;;1.30;;
24613;SDS011;12760;46.296;25.290;2023-01-23T00:12:41;1.70;;;1.70;;
24613;SDS011;12760;46.296;25.290;2023-01-23T00:15:08;1.20;;;1.20;;
24613;SDS011;12760;46.296;25.290;2023-01-23T00:17:35;1.97;;;1.87;;
24613;SDS011;12760;46.296;25.290;2023-01-23T00:20:01;2.40;;;2.33;;
24613;SDS011;12760;46.296;25.290;2023-01-23T00:22:28;1.53;;;1.53;;
24613;SDS011;12760;46.296;25.290;2023-01-23T00:24:54;1.70;;;1.70;;
24613;SDS011;12760;46.296;25.290;2023-01-23T00:27:20;3.00;;;2.90;;
24613;SDS011;12760;46.296;25.290;2023-01-23T00:29:45;1.07;;;1.07;;
24613;SDS011;12760;46.296;25.290;2023-01-23T00:32:11;1.90;;;1.90;;
24613;SDS011;12760;46.296;25.290;2023-01-23T00:34:37;1.50;;;1.50;;
24613;SDS011;12760;46.296;25.290;2023-01-23T00:37:03;1.40;;;1.40;;
24613;SDS011;12760;46.296;25.290;2023-01-23T00:39:29;1.40;;;1.40;;
24613;SDS011;12760;46.296;25.290;2023-01-23T00:41:55;2.50;;;2.40;;
24613;SDS011;12760;46.296;25.290;2023-01-23T00:44:21;0.93;;;0.93;;
24613;SDS011;12760;46.296;25.290;2023-01-23T00:46:47;2.10;;;2.10;;
24613;SDS011;12760;46.296;25.290;2023-01-23T00:49:12;1.47;;;1.47;;
24613;SDS011;12760;46.296;25.290;2023-01-23T00:51:38;1.43;;;1.43;;
24613;SDS011;12760;46.296;25.290;2023-01-23T00:54:04;1.47;;;1.47;;
24613;SDS011;12760;46.296;25.290;2023-01-23T00:56:30;2.60;;;1.60;;
24613;SDS011;12760;46.296;25.290;2023-01-23T00:58:56;1.40;;;1.40;;
24613;SDS011;12760;46.296;25.290;2023-01-23T01:01:21;2.10;;;2.10;;
24613;SDS011;12760;46.296;25.290;2023-01-23T01:03:47;1.80;;;1.80;;
24613;SDS011;12760;46.296;25.290;2023-01-23T01:06:13;2.43;;;2.23;;
24613;SDS011;12760;46.296;25.290;2023-01-23T01:08:40;1.37;;;1.37;;
24613;SDS011;12760;46.296;25.290;2023-01-23T01:11:06;1.20;;;1.20;;
24613;SDS011;12760;46.296;25.290;2023-01-23T01:13:32;1.27;;;1.27;;
24613;SDS011;12760;46.296;25.290;2023-01-23T01:15:58;2.23;;;2.13;;
24613;SDS011;12760;46.296;25.290;2023-01-23T01:18:26;1.70;;;1.70;;
24613;SDS011;12760;46.296;25.290;2023-01-23T01:20:53;1.50;;;1.50;;
24613;SDS011;12760;46.296;25.290;2023-01-23T01:23:19;1.50;;;1.50;;
24613;SDS011;12760;46.296;25.290;2023-01-23T01:25:45;1.33;;;1.33;;
24613;SDS011;12760;46.296;25.290;2023-01-23T01:28:12;1.73;;;1.63;;
24613;SDS011;12760;46.296;25.290;2023-01-23T01:30:38;1.70;;;1.70;;
24613;SDS011;12760;46.296;25.290;2023-01-23T01:33:04;1.77;;;1.77;;
24613;SDS011;12760;46.296;25.290;2023-01-23T01:35:31;1.63;;;1.63;;
24613;SDS011;12760;46.296;25.290;2023-01-23T01:37:57;1.13;;;1.13;;
24613;SDS011;12760;46.296;25.290;2023-01-23T01:40:24;1.37;;;1.37;;
24613;SDS011;12760;46.296;25.290;2023-01-23T01:42:57;1.57;;;1.57;;
24613;SDS011;12760;46.296;25.290;2023-01-23T01:53:57;2.07;;;1.97;;
24613;SDS011;12760;46.296;25.290;2023-01-23T02:02:25;3.93;;;3.67;;
24613;SDS011;12760;46.296;25.290;2023-01-23T02:04:56;1.50;;;1.50;;
24613;SDS011;12760;46.296;25.290;2023-01-23T02:07:42;1.20;;;1.20;;
24613;SDS011;12760;46.296;25.290;2023-01-23T02:10:12;1.60;;;1.60;;
24613;SDS011;12760;46.296;25.290;2023-01-23T02:12:40;1.90;;;1.90;;
24613;SDS011;12760;46.296;25.290;2023-01-23T02:15:10;1.97;;;1.93;;
24613;SDS011;12760;46.296;25.290;2023-01-23T02:17:36;1.80;;;1.80;;
24613;SDS011;12760;46.296;25.290;2023-01-23T02:25:21;1.97;;;1.97;;
24613;SDS011;12760;46.296;25.290;2023-01-23T02:28:00;1.67;;;1.67;;
24613;SDS011;12760;46.296;25.290;2023-01-23T02:30:26;1.53;;;1.53;;
24613;SDS011;12760;46.296;25.290;2023-01-23T02:32:52;1.70;;;1.70;;
24613;SDS011;12760;46.296;25.290;2023-01-23T02:35:25;1.40;;;1.40;;
24613;SDS011;12760;46.296;25.290;2023-01-23T02:37:54;1.67;;;1.67;;
24613;SDS011;12760;46.296;25.290;2023-01-23T02:40:34;1.63;;;1.63;;
24613;SDS011;12760;46.296;25.290;2023-01-23T02:43:06;3.53;;;3.17;;
24613;SDS011;12760;46.296;25.290;2023-01-23T02:45:35;1.57;;;1.57;;
24613;SDS011;12760;46.296;25.290;2023-01-23T02:48:01;1.47;;;1.47;;
24613;SDS011;12760;46.296;25.290;2023-01-23T02:50:27;1.53;;;1.53;;
24613;SDS011;12760;46.296;25.290;2023-01-23T02:52:53;1.33;;;1.33;;
24613;SDS011;12760;46.296;25.290;2023-01-23T02:55:21;1.73;;;1.73;;
24613;SDS011;12760;46.296;25.290;2023-01-23T02:57:47;1.70;;;1.60;;
24613;SDS011;12760;46.296;25.290;2023-01-23T03:00:13;2.27;;;2.17;;
24613;SDS011;12760;46.296;25.290;2023-01-23T03:02:48;1.43;;;1.43;;
24613;SDS011;12760;46.296;25.290;2023-01-23T03:05:15;2.13;;;2.03;;
24613;SDS011;12760;46.296;25.290;2023-01-23T03:07:42;2.23;;;2.17;;
24613;SDS011;12760;46.296;25.290;2023-01-23T03:10:08;2.00;;;1.90;;
24613;SDS011;12760;46.296;25.290;2023-01-23T03:12:35;7.40;;;3.67;;
24613;SDS011;12760;46.296;25.290;2023-01-23T03:15:06;2.43;;;2.33;;
24613;SDS011;12760;46.296;25.290;2023-01-23T03:17:33;1.27;;;1.27;;
24613;SDS011;12760;46.296;25.290;2023-01-23T03:19:58;1.27;;;1.27;;
24613;SDS011;12760;46.296;25.290;2023-01-23T03:22:25;1.23;;;1.23;;
24613;SDS011;12760;46.296;25.290;2023-01-23T03:24:51;1.33;;;1.33;;
24613;SDS011;12760;46.296;25.290;2023-01-23T03:27:16;1.97;;;1.97;;
24613;SDS011;12760;46.296;25.290;2023-01-23T03:29:42;1.67;;;1.67;;
24613;SDS011;12760;46.296;25.290;2023-01-23T03:32:46;1.20;;;1.20;;
24613;SDS011;12760;46.296;25.290;2023-01-23T03:35:13;2.67;;;2.57;;
24613;SDS011;12760;46.296;25.290;2023-01-23T03:37:44;1.93;;;1.93;;
24613;SDS011;12760;46.296;25.290;2023-01-23T03:40:15;1.40;;;1.40;;
24613;SDS011;12760;46.296;25.290;2023-01-23T03:43:01;1.33;;;1.33;;
24613;SDS011;12760;46.296;25.290;2023-01-23T03:45:26;1.53;;;1.53;;
24613;SDS011;12760;46.296;25.290;2023-01-23T03:47:52;1.53;;;1.53;;
24613;SDS011;12760;46.296;25.290;2023-01-23T03:50:18;2.07;;;2.07;;
24613;SDS011;12760;46.296;25.290;2023-01-23T03:52:44;1.67;;;1.67;;
24613;SDS011;12760;46.296;25.290;2023-01-23T03:55:09;2.30;;;2.20;;
24613;SDS011;12760;46.296;25.290;2023-01-23T03:57:35;1.60;;;1.60;;
24613;SDS011;12760;46.296;25.290;2023-01-23T04:00:01;17.47;;;8.47;;
24613;SDS011;12760;46.296;25.290;2023-01-23T04:02:28;4.47;;;4.17;;
24613;SDS011;12760;46.296;25.290;2023-01-23T04:04:54;2.00;;;1.93;;
24613;SDS011;12760;46.296;25.290;2023-01-23T04:07:19;1.50;;;1.50;;
24613;SDS011;12760;46.296;25.290;2023-01-23T04:09:45;1.93;;;1.93;;
24613;SDS011;12760;46.296;25.290;2023-01-23T04:12:11;1.77;;;1.73;;
24613;SDS011;12760;46.296;25.290;2023-01-23T04:14:38;1.10;;;1.10;;
24613;SDS011;12760;46.296;25.290;2023-01-23T04:17:04;1.97;;;1.97;;
24613;SDS011;12760;46.296;25.290;2023-01-23T04:19:31;1.33;;;1.33;;
24613;SDS011;12760;46.296;25.290;2023-01-23T04:21:57;1.70;;;1.70;;
24613;SDS011;12760;46.296;25.290;2023-01-23T04:24:23;1.47;;;1.47;;
24613;SDS011;12760;46.296;25.290;2023-01-23T04:26:49;1.37;;;1.37;;
24613;SDS011;12760;46.296;25.290;2023-01-23T04:29:14;2.10;;;2.10;;
24613;SDS011;12760;46.296;25.290;2023-01-23T04:31:41;3.63;;;3.43;;
24613;SDS011;12760;46.296;25.290;2023-01-23T04:34:07;1.47;;;1.47;;
24613;SDS011;12760;46.296;25.290;2023-01-23T04:36:33;3.40;;;3.13;;
24613;SDS011;12760;46.296;25.290;2023-01-23T04:38:59;2.07;;;2.00;;
24613;SDS011;12760;46.296;25.290;2023-01-23T04:41:26;4.67;;;2.83;;
24613;SDS011;12760;46.296;25.290;2023-01-23T04:43:52;2.70;;;2.60;;
24613;SDS011;12760;46.296;25.290;2023-01-23T04:46:18;3.50;;;3.27;;
24613;SDS011;12760;46.296;25.290;2023-01-23T04:48:44;11.30;;;5.23;;
24613;SDS011;12760;46.296;25.290;2023-01-23T04:51:10;3.27;;;3.00;;
24613;SDS011;12760;46.296;25.290;2023-01-23T04:53:36;2.40;;;2.23;;
24613;SDS011;12760;46.296;25.290;2023-01-23T04:56:02;2.17;;;2.07;;
24613;SDS011;12760;46.296;25.290;2023-01-23T04:58:28;2.40;;;2.30;;
24613;SDS011;12760;46.296;25.290;2023-01-23T05:00:54;3.67;;;3.57;;
24613;SDS011;12760;46.296;25.290;2023-01-23T05:03:26;3.33;;;3.13;;
24613;SDS011;12760;46.296;25.290;2023-01-23T05:05:51;4.20;;;4.00;;
24613;SDS011;12760;46.296;25.290;2023-01-23T05:08:17;4.30;;;4.00;;
24613;SDS011;12760;46.296;25.290;2023-01-23T05:10:43;2.00;;;2.00;;
24613;SDS011;12760;46.296;25.290;2023-01-23T05:13:09;2.93;;;2.83;;
24613;SDS011;12760;46.296;25.290;2023-01-23T05:15:35;4.17;;;3.77;;
24613;SDS011;12760;46.296;25.290;2023-01-23T05:18:01;2.30;;;2.10;;
24613;SDS011;12760;46.296;25.290;2023-01-23T05:20:27;3.00;;;2.90;;
24613;SDS011;12760;46.296;25.290;2023-01-23T05:22:53;2.63;;;2.53;;
24613;SDS011;12760;46.296;25.290;2023-01-23T05:25:20;3.47;;;3.27;;
24613;SDS011;12760;46.296;25.290;2023-01-23T05:27:47;4.13;;;3.93;;
24613;SDS011;12760;46.296;25.290;2023-01-23T05:30:13;3.47;;;3.37;;
24613;SDS011;12760;46.296;25.290;2023-01-23T05:32:39;3.90;;;3.80;;
24613;SDS011;12760;46.296;25.290;2023-01-23T05:35:05;2.43;;;2.37;;
24613;SDS011;12760;46.296;25.290;2023-01-23T05:37:31;3.03;;;2.93;;
24613;SDS011;12760;46.296;25.290;2023-01-23T05:39:56;3.50;;;3.40;;
24613;SDS011;12760;46.296;25.290;2023-01-23T05:42:22;3.20;;;3.10;;
24613;SDS011;12760;46.296;25.290;2023-01-23T05:44:48;15.60;;;7.13;;
24613;SDS011;12760;46.296;25.290;2023-01-23T05:47:13;7.27;;;6.77;;
24613;SDS011;12760;46.296;25.290;2023-01-23T05:49:39;10.70;;;9.63;;
24613;SDS011;12760;46.296;25.290;2023-01-23T05:52:05;5.63;;;5.10;;
24613;SDS011;12760;46.296;25.290;2023-01-23T05:54:30;4.77;;;4.43;;
24613;SDS011;12760;46.296;25.290;2023-01-23T05:56:56;8.13;;;7.63;;
24613;SDS011;12760;46.296;25.290;2023-01-23T05:59:22;15.63;;;9.97;;
24613;SDS011;12760;46.296;25.290;2023-01-23T06:01:47;8.70;;;7.87;;
24613;SDS011;12760;46.296;25.290;2023-01-23T06:04:13;10.60;;;9.60;;
24613;SDS011;12760;46.296;25.290;2023-01-23T06:06:41;6.93;;;6.53;;
24613;SDS011;12760;46.296;25.290;2023-01-23T06:09:09;6.80;;;6.40;;
24613;SDS011;12760;46.296;25.290;2023-01-23T06:11:35;10.77;;;10.07;;
24613;SDS011;12760;46.296;25.290;2023-01-23T06:14:01;10.50;;;9.50;;
24613;SDS011;12760;46.296;25.290;2023-01-23T06:16:27;12.17;;;11.10;;
24613;SDS011;12760;46.296;25.290;2023-01-23T06:18:53;18.17;;;15.80;;
24613;SDS011;12760;46.296;25.290;2023-01-23T06:21:18;24.27;;;18.13;;
24613;SDS011;12760;46.296;25.290;2023-01-23T06:23:44;10.47;;;9.77;;
24613;SDS011;12760;46.296;25.290;2023-01-23T06:26:10;19.97;;;13.30;;
24613;SDS011;12760;46.296;25.290;2023-01-23T06:28:36;16.67;;;11.93;;
24613;SDS011;12760;46.296;25.290;2023-01-23T06:31:02;8.67;;;8.20;;
24613;SDS011;12760;46.296;25.290;2023-01-23T06:33:30;13.07;;;11.83;;
24613;SDS011;12760;46.296;25.290;2023-01-23T06:36:00;10.20;;;9.27;;
24613;SDS011;12760;46.296;25.290;2023-01-23T06:38:26;12.37;;;11.17;;
24613;SDS011;12760;46.296;25.290;2023-01-23T06:40:53;19.73;;;13.63;;
24613;SDS011;12760;46.296;25.290;2023-01-23T06:43:19;10.77;;;8.60;;
24613;SDS011;12760;46.296;25.290;2023-01-23T06:45:45;7.97;;;7.47;;
24613;SDS011;12760;46.296;25.290;2023-01-23T06:48:11;9.73;;;8.93;;
24613;SDS011;12760;46.296;25.290;2023-01-23T06:50:38;17.70;;;10.37;;
24613;SDS011;12760;46.296;25.290;2023-01-23T06:53:04;13.83;;;11.03;;
24613;SDS011;12760;46.296;25.290;2023-01-23T06:55:30;16.47;;;15.17;;
24613;SDS011;12760;46.296;25.290;2023-01-23T06:57:57;13.97;;;12.83;;
24613;SDS011;12760;46.296;25.290;2023-01-23T07:00:22;12.10;;;11.17;;
24613;SDS011;12760;46.296;25.290;2023-01-23T07:02:48;11.83;;;10.87;;
24613;SDS011;12760;46.296;25.290;2023-01-23T07:05:15;27.00;;;15.80;;
24613;SDS011;12760;46.296;25.290;2023-01-23T07:07:41;19.20;;;12.47;;
24613;SDS011;12760;46.296;25.290;2023-01-23T07:10:07;12.10;;;11.33;;
24613;SDS011;12760;46.296;25.290;2023-01-23T07:12:33;18.07;;;15.17;;
24613;SDS011;12760;46.296;25.290;2023-01-23T07:14:59;17.07;;;12.13;;
24613;SDS011;12760;46.296;25.290;2023-01-23T07:17:25;12.47;;;11.30;;
24613;SDS011;12760;46.296;25.290;2023-01-23T07:19:50;21.20;;;15.43;;
24613;SDS011;12760;46.296;25.290;2023-01-23T07:22:17;16.07;;;13.50;;
24613;SDS011;12760;46.296;25.290;2023-01-23T07:24:43;12.13;;;10.47;;
24613;SDS011;12760;46.296;25.290;2023-01-23T07:27:09;11.20;;;10.40;;
24613;SDS011;12760;46.296;25.290;2023-01-23T07:29:34;10.47;;;9.70;;
24613;SDS011;12760;46.296;25.290;2023-01-23T07:32:00;9.73;;;9.30;;
24613;SDS011;12760;46.296;25.290;2023-01-23T07:34:26;21.73;;;19.53;;
24613;SDS011;12760;46.296;25.290;2023-01-23T07:36:52;11.03;;;10.33;;
24613;SDS011;12760;46.296;25.290;2023-01-23T07:39:18;17.20;;;14.77;;
24613;SDS011;12760;46.296;25.290;2023-01-23T07:41:43;13.10;;;12.13;;
24613;SDS011;12760;46.296;25.290;2023-01-23T07:44:13;25.40;;;16.20;;
24613;SDS011;12760;46.296;25.290;2023-01-23T07:46:44;20.27;;;15.27;;
24613;SDS011;12760;46.296;25.290;2023-01-23T07:49:10;15.93;;;14.63;;
24613;SDS011;12760;46.296;25.290;2023-01-23T07:51:36;15.63;;;14.43;;
24613;SDS011;12760;46.296;25.290;2023-01-23T07:54:02;14.30;;;13.33;;
24613;SDS011;12760;46.296;25.290;2023-01-23T07:56:28;21.33;;;14.40;;
24613;SDS011;12760;46.296;25.290;2023-01-23T07:58:54;32.07;;;14.37;;
24613;SDS011;12760;46.296;25.290;2023-01-23T08:01:20;21.20;;;14.27;;
24613;SDS011;12760;46.296;25.290;2023-01-23T08:03:45;18.03;;;16.73;;
24613;SDS011;12760;46.296;25.290;2023-01-23T08:06:11;18.63;;;16.90;;
24613;SDS011;12760;46.296;25.290;2023-01-23T08:08:37;21.80;;;19.77;;
24613;SDS011;12760;46.296;25.290;2023-01-23T08:11:06;21.07;;;18.33;;
24613;SDS011;12760;46.296;25.290;2023-01-23T08:13:34;18.57;;;16.93;;
24613;SDS011;12760;46.296;25.290;2023-01-23T08:16:00;28.73;;;23.13;;
24613;SDS011;12760;46.296;25.290;2023-01-23T08:18:27;22.37;;;16.83;;
24613;SDS011;12760;46.296;25.290;2023-01-23T08:20:54;15.57;;;13.97;;
24613;SDS011;12760;46.296;25.290;2023-01-23T08:23:24;45.77;;;25.50;;
24613;SDS011;12760;46.296;25.290;2023-01-23T08:25:55;44.20;;;21.60;;
24613;SDS011;12760;46.296;25.290;2023-01-23T08:28:23;18.43;;;16.03;;
24613;SDS011;12760;46.296;25.290;2023-01-23T08:30:50;18.50;;;16.87;;
24613;SDS011;12760;46.296;25.290;2023-01-23T08:33:16;18.13;;;16.97;;
24613;SDS011;12760;46.296;25.290;2023-01-23T08:35:52;15.77;;;14.53;;
24613;SDS011;12760;46.296;25.290;2023-01-23T08:38:20;13.00;;;12.03;;
24613;SDS011;12760;46.296;25.290;2023-01-23T08:40:46;14.97;;;13.93;;
24613;SDS011;12760;46.296;25.290;2023-01-23T08:43:13;22.30;;;17.40;;
24613;SDS011;12760;46.296;25.290;2023-01-23T08:45:40;29.50;;;20.77;;
24613;SDS011;12760;46.296;25.290;2023-01-23T08:48:09;24.70;;;12.73;;
24613;SDS011;12760;46.296;25.290;2023-01-23T08:50:36;9.43;;;8.63;;
24613;SDS011;12760;46.296;25.290;2023-01-23T08:53:02;13.60;;;12.20;;
24613;SDS011;12760;46.296;25.290;2023-01-23T08:55:27;10.43;;;9.63;;
24613;SDS011;12760;46.296;25.290;2023-01-23T08:57:54;7.50;;;7.00;;
24613;SDS011;12760;46.296;25.290;2023-01-23T09:00:20;6.77;;;6.30;;
24613;SDS011;12760;46.296;25.290;2023-01-23T09:02:45;8.33;;;7.63;;
24613;SDS011;12760;46.296;25.290;2023-01-23T09:05:12;8.80;;;8.17;;
24613;SDS011;12760;46.296;25.290;2023-01-23T09:07:38;8.93;;;8.17;;
24613;SDS011;12760;46.296;25.290;2023-01-23T09:10:05;10.82;;;9.85;;
24613;SDS011;12760;46.296;25.290;2023-01-23T09:12:31;14.45;;;12.13;;
24613;SDS011;12760;46.296;25.290;2023-01-23T09:14:57;10.00;;;8.45;;
24613;SDS011;12760;46.296;25.290;2023-01-23T09:17:23;70.97;;;13.45;;
24613;SDS011;12760;46.296;25.290;2023-01-23T09:19:49;8.80;;;8.15;;
24613;SDS011;12760;46.296;25.290;2023-01-23T09:22:15;12.40;;;7.72;;
24613;SDS011;12760;46.296;25.290;2023-01-23T09:24:41;6.65;;;6.15;;
24613;SDS011;12760;46.296;25.290;2023-01-23T09:27:07;5.28;;;5.00;;
24613;SDS011;12760;46.296;25.290;2023-01-23T09:29:34;7.03;;;5.68;;
24613;SDS011;12760;46.296;25.290;2023-01-23T09:32:00;7.65;;;5.15;;
24613;SDS011;12760;46.296;25.290;2023-01-23T09:34:26;12.18;;;8.40;;
24613;SDS011;12760;46.296;25.290;2023-01-23T09:36:53;1.33;;;1.33;;
24613;SDS011;12760;46.296;25.290;2023-01-23T09:39:19;3.05;;;2.85;;
24613;SDS011;12760;46.296;25.290;2023-01-23T09:41:45;1.83;;;1.73;;
24613;SDS011;12760;46.296;25.290;2023-01-23T09:46:54;1.48;;;1.48;;
24613;SDS011;12760;46.296;25.290;2023-01-23T09:52:13;14.45;;;6.25;;
24613;SDS011;12760;46.296;25.290;2023-01-23T09:54:49;1.98;;;1.88;;
24613;SDS011;12760;46.296;25.290;2023-01-23T09:57:24;2.83;;;2.50;;
24613;SDS011;12760;46.296;25.290;2023-01-23T10:00:03;0.90;;;0.90;;
24613;SDS011;12760;46.296;25.290;2023-01-23T10:02:34;6.53;;;3.72;;
24613;SDS011;12760;46.296;25.290;2023-01-23T10:05:00;2.53;;;1.95;;
24613;SDS011;12760;46.296;25.290;2023-01-23T10:07:37;0.70;;;0.70;;
24613;SDS011;12760;46.296;25.290;2023-01-23T10:12:58;1.63;;;1.60;;
24613;SDS011;12760;46.296;25.290;2023-01-23T10:23:33;1.15;;;1.15;;
24613;SDS011;12760;46.296;25.290;2023-01-23T10:26:02;9.43;;;3.65;;
24613;SDS011;12760;46.296;25.290;2023-01-23T10:28:30;2.40;;;1.83;;
24613;SDS011;12760;46.296;25.290;2023-01-23T10:31:03;4.95;;;2.88;;
24613;SDS011;12760;46.296;25.290;2023-01-23T10:33:41;1.40;;;1.40;;
24613;SDS011;12760;46.296;25.290;2023-01-23T10:36:52;1.45;;;1.40;;
24613;SDS011;12760;46.296;25.290;2023-01-23T10:39:13;2.40;;;2.20;;
24613;SDS011;12760;46.296;25.290;2023-01-23T10:41:44;36.47;;;3.33;;
24613;SDS011;12760;46.296;25.290;2023-01-23T10:44:12;0.68;;;0.68;;
24613;SDS011;12760;46.296;25.290;2023-01-23T10:52:32;1.58;;;1.58;;
24613;SDS011;12760;46.296;25.290;2023-01-23T10:57:44;0.70;;;0.70;;
24613;SDS011;12760;46.296;25.290;2023-01-23T11:00:20;1.48;;;1.42;;
24613;SDS011;12760;46.296;25.290;2023-01-23T11:05:49;1.45;;;1.15;;
24613;SDS011;12760;46.296;25.290;2023-01-23T11:08:27;1.90;;;1.80;;
24613;SDS011;12760;46.296;25.290;2023-01-23T11:13:39;1.20;;;1.15;;
24613;SDS011;12760;46.296;25.290;2023-01-23T11:16:06;7.53;;;5.60;;
24613;SDS011;12760;46.296;25.290;2023-01-23T11:18:40;4.22;;;2.08;;
24613;SDS011;12760;46.296;25.290;2023-01-23T11:27:07;10.63;;;1.85;;
24613;SDS011;12760;46.296;25.290;2023-01-23T11:32:32;1.13;;;1.13;;
24613;SDS011;12760;46.296;25.290;2023-01-23T11:35:14;1.30;;;1.30;;
24613;SDS011;12760;46.296;25.290;2023-01-23T11:37:43;0.95;;;0.95;;
24613;SDS011;12760;46.296;25.290;2023-01-23T11:40:10;1.25;;;1.25;;
24613;SDS011;12760;46.296;25.290;2023-01-23T11:42:43;1.30;;;1.30;;
24613;SDS011;12760;46.296;25.290;2023-01-23T11:45:16;1.20;;;1.20;;
24613;SDS011;12760;46.296;25.290;2023-01-23T11:50:49;3.80;;;3.03;;
24613;SDS011;12760;46.296;25.290;2023-01-23T11:53:20;1.90;;;1.75;;
24613;SDS011;12760;46.296;25.290;2023-01-23T11:55:54;3.72;;;3.10;;
24613;SDS011;12760;46.296;25.290;2023-01-23T12:01:12;1.20;;;1.20;;
24613;SDS011;12760;46.296;25.290;2023-01-23T12:09:09;2.45;;;2.25;;
24613;SDS011;12760;46.296;25.290;2023-01-23T12:19:57;1.17;;;1.17;;
24613;SDS011;12760;46.296;25.290;2023-01-23T12:45:16;3.92;;;2.55;;
24613;SDS011;12760;46.296;25.290;2023-01-23T12:48:13;4.15;;;2.65;;
24613;SDS011;12760;46.296;25.290;2023-01-23T12:53:33;2.28;;;2.17;;
24613;SDS011;12760;46.296;25.290;2023-01-23T13:02:18;1.40;;;1.40;;
24613;SDS011;12760;46.296;25.290;2023-01-23T13:13:14;2.25;;;2.15;;
24613;SDS011;12760;46.296;25.290;2023-01-23T13:15:41;0.90;;;0.90;;
24613;SDS011;12760;46.296;25.290;2023-01-23T13:18:24;1.10;;;1.10;;
24613;SDS011;12760;46.296;25.290;2023-01-23T13:20:58;1.55;;;1.55;;
24613;SDS011;12760;46.296;25.290;2023-01-23T13:23:45;2.22;;;2.13;;
24613;SDS011;12760;46.296;25.290;2023-01-23T13:26:12;1.60;;;1.55;;
24613;SDS011;12760;46.296;25.290;2023-01-23T13:31:37;1.15;;;1.15;;
24613;SDS011;12760;46.296;25.290;2023-01-23T13:36:46;1.10;;;1.10;;
24613;SDS011;12760;46.296;25.290;2023-01-23T13:41:41;1.85;;;1.75;;
24613;SDS011;12760;46.296;25.290;2023-01-23T13:44:18;1.27;;;1.27;;
24613;SDS011;12760;46.296;25.290;2023-01-23T13:46:55;1.45;;;1.45;;
24613;SDS011;12760;46.296;25.290;2023-01-23T13:52:55;1.90;;;1.80;;
24613;SDS011;12760;46.296;25.290;2023-01-23T13:55:42;0.80;;;0.80;;
24613;SDS011;12760;46.296;25.290;2023-01-23T13:58:29;0.85;;;0.85;;
24613;SDS011;12760;46.296;25.290;2023-01-23T14:01:13;2.35;;;2.25;;
24613;SDS011;12760;46.296;25.290;2023-01-23T14:04:08;2.60;;;2.42;;
24613;SDS011;12760;46.296;25.290;2023-01-23T14:12:38;3.28;;;3.08;;
24613;SDS011;12760;46.296;25.290;2023-01-23T14:15:15;1.67;;;1.67;;
24613;SDS011;12760;46.296;25.290;2023-01-23T14:18:04;2.83;;;2.72;;
24613;SDS011;12760;46.296;25.290;2023-01-23T14:20:48;1.48;;;1.48;;
24613;SDS011;12760;46.296;25.290;2023-01-23T14:26:04;4.82;;;4.43;;
24613;SDS011;12760;46.296;25.290;2023-01-23T14:28:34;4.40;;;2.95;;
24613;SDS011;12760;46.296;25.290;2023-01-23T14:31:01;1.30;;;1.30;;
24613;SDS011;12760;46.296;25.290;2023-01-23T14:33:37;1.67;;;1.58;;
24613;SDS011;12760;46.296;25.290;2023-01-23T14:36:05;1.80;;;1.70;;
24613;SDS011;12760;46.296;25.290;2023-01-23T14:38:40;2.55;;;2.45;;
24613;SDS011;12760;46.296;25.290;2023-01-23T14:41:08;1.35;;;1.35;;
24613;SDS011;12760;46.296;25.290;2023-01-23T14:43:35;4.35;;;3.95;;
24613;SDS011;12760;46.296;25.290;2023-01-23T14:46:06;31.08;;;3.30;;
24613;SDS011;12760;46.296;25.290;2023-01-23T14:48:44;1.98;;;1.92;;
24613;SDS011;12760;46.296;25.290;2023-01-23T14:51:20;6.05;;;5.47;;
24613;SDS011;12760;46.296;25.290;2023-01-23T14:54:00;1.95;;;1.85;;
24613;SDS011;12760;46.296;25.290;2023-01-23T14:56:31;2.00;;;2.00;;
24613;SDS011;12760;46.296;25.290;2023-01-23T14:59:00;3.88;;;3.45;;
24613;SDS011;12760;46.296;25.290;2023-01-23T15:01:28;3.72;;;3.53;;
24613;SDS011;12760;46.296;25.290;2023-01-23T15:03:58;2.33;;;2.15;;
24613;SDS011;12760;46.296;25.290;2023-01-23T15:06:29;1.67;;;1.67;;
24613;SDS011;12760;46.296;25.290;2023-01-23T15:09:05;2.20;;;2.10;;
24613;SDS011;12760;46.296;25.290;2023-01-23T15:11:32;0.90;;;0.90;;
24613;SDS011;12760;46.296;25.290;2023-01-23T15:13:59;2.20;;;2.10;;
24613;SDS011;12760;46.296;25.290;2023-01-23T15:16:30;2.90;;;2.70;;
24613;SDS011;12760;46.296;25.290;2023-01-23T15:19:20;5.25;;;4.82;;
24613;SDS011;12760;46.296;25.290;2023-01-23T15:21:47;1.45;;;1.45;;
24613;SDS011;12760;46.296;25.290;2023-01-23T15:26:43;8.85;;;5.72;;
24613;SDS011;12760;46.296;25.290;2023-01-23T15:29:19;2.55;;;2.45;;
24613;SDS011;12760;46.296;25.290;2023-01-23T15:31:47;2.60;;;2.50;;
24613;SDS011;12760;46.296;25.290;2023-01-23T15:39:27;38.35;;;7.20;;
24613;SDS011;12760;46.296;25.290;2023-01-23T15:44:48;2.78;;;2.67;;
24613;SDS011;12760;46.296;25.290;2023-01-23T15:47:14;6.03;;;5.60;;
24613;SDS011;12760;46.296;25.290;2023-01-23T15:49:40;2.85;;;2.75;;
24613;SDS011;12760;46.296;25.290;2023-01-23T15:52:14;9.38;;;6.43;;
24613;SDS011;12760;46.296;25.290;2023-01-23T15:54:44;10.80;;;5.35;;
24613;SDS011;12760;46.296;25.290;2023-01-23T15:57:10;9.27;;;4.47;;
24613;SDS011;12760;46.296;25.290;2023-01-23T15:59:37;10.93;;;7.30;;
24613;SDS011;12760;46.296;25.290;2023-01-23T16:02:06;7.43;;;5.60;;
24613;SDS011;12760;46.296;25.290;2023-01-23T16:04:38;4.20;;;4.00;;
24613;SDS011;12760;46.296;25.290;2023-01-23T16:07:04;14.77;;;7.55;;
24613;SDS011;12760;46.296;25.290;2023-01-23T16:09:32;24.73;;;4.57;;
24613;SDS011;12760;46.296;25.290;2023-01-23T16:11:59;6.50;;;5.95;;
24613;SDS011;12760;46.296;25.290;2023-01-23T16:14:25;6.60;;;6.00;;
24613;SDS011;12760;46.296;25.290;2023-01-23T16:16:52;5.22;;;4.50;;
24613;SDS011;12760;46.296;25.290;2023-01-23T16:19:18;8.45;;;7.93;;
24613;SDS011;12760;46.296;25.290;2023-01-23T16:21:43;8.00;;;7.43;;
24613;SDS011;12760;46.296;25.290;2023-01-23T16:24:15;7.60;;;7.03;;
24613;SDS011;12760;46.296;25.290;2023-01-23T16:26:43;12.15;;;6.72;;
24613;SDS011;12760;46.296;25.290;2023-01-23T16:29:28;18.90;;;7.70;;
24613;SDS011;12760;46.296;25.290;2023-01-23T16:31:55;7.88;;;7.25;;
24613;SDS011;12760;46.296;25.290;2023-01-23T16:34:24;9.40;;;8.43;;
24613;SDS011;12760;46.296;25.290;2023-01-23T16:36:54;5.90;;;5.60;;
24613;SDS011;12760;46.296;25.290;2023-01-23T16:39:23;2.97;;;2.60;;
24613;SDS011;12760;46.296;25.290;2023-01-23T16:41:51;17.13;;;5.97;;
24613;SDS011;12760;46.296;25.290;2023-01-23T16:44:20;6.93;;;5.27;;
24613;SDS011;12760;46.296;25.290;2023-01-23T16:46:48;20.17;;;10.37;;
24613;SDS011;12760;46.296;25.290;2023-01-23T16:49:14;9.43;;;7.53;;
24613;SDS011;12760;46.296;25.290;2023-01-23T16:51:41;8.03;;;7.50;;
24613;SDS011;12760;46.296;25.290;2023-01-23T16:54:17;9.47;;;8.60;;
24613;SDS011;12760;46.296;25.290;2023-01-23T16:56:46;14.10;;;7.93;;
24613;SDS011;12760;46.296;25.290;2023-01-23T16:59:18;32.10;;;7.90;;
24613;SDS011;12760;46.296;25.290;2023-01-23T17:01:53;13.53;;;6.83;;
24613;SDS011;12760;46.296;25.290;2023-01-23T17:04:20;6.87;;;5.47;;
24613;SDS011;12760;46.296;25.290;2023-01-23T17:06:46;8.13;;;7.43;;